Terminal Aerodrome Forecast
Issued by NWS

Home | Current Version | Previous Version | Text Only | Print | Product List | Glossary On
Versions: 1 2 3 4 5 6 7 8 9 10 11 12 13 14
000
FTUS45 KCYS 192336
TAFLAR
TAF
KLAR 192336Z 2000/2024 24015G25KT P6SM FEW250
     FM200600 24010KT P6SM SCT250
     FM201600 18015G22KT P6SM BKN050
     FM202100 15012KT 6SM -SHSN SCT020 OVC050=

USA.gov is the U.S. government's official web portal to all federal, state and local government web resources and services.